sensor_id;sensor_type;location;lat;lon;timestamp;P1;durP1;ratioP1;P2;durP2;ratioP2
63016;SDS011;50274;45.640;11.756;2022-10-31T00:01:34;14.07;;;7.82;;
63016;SDS011;50274;45.640;11.756;2022-10-31T00:04:02;15.10;;;7.82;;
63016;SDS011;50274;45.640;11.756;2022-10-31T00:06:29;13.10;;;7.75;;
63016;SDS011;50274;45.640;11.756;2022-10-31T00:08:56;15.43;;;7.20;;
63016;SDS011;50274;45.640;11.756;2022-10-31T00:11:24;18.00;;;8.20;;
63016;SDS011;50274;45.640;11.756;2022-10-31T00:13:50;16.45;;;9.00;;
63016;SDS011;50274;45.640;11.756;2022-10-31T00:16:17;14.98;;;7.53;;
63016;SDS011;50274;45.640;11.756;2022-10-31T00:18:52;15.13;;;7.90;;
63016;SDS011;50274;45.640;11.756;2022-10-31T00:21:19;13.57;;;6.57;;
63016;SDS011;50274;45.640;11.756;2022-10-31T00:23:45;14.60;;;7.25;;
63016;SDS011;50274;45.640;11.756;2022-10-31T00:26:11;15.95;;;7.60;;
63016;SDS011;50274;45.640;11.756;2022-10-31T00:28:37;15.32;;;8.20;;
63016;SDS011;50274;45.640;11.756;2022-10-31T00:31:04;13.50;;;7.30;;
63016;SDS011;50274;45.640;11.756;2022-10-31T00:33:35;16.83;;;8.77;;
63016;SDS011;50274;45.640;11.756;2022-10-31T00:36:03;14.60;;;7.00;;
63016;SDS011;50274;45.640;11.756;2022-10-31T00:38:29;13.63;;;6.93;;
63016;SDS011;50274;45.640;11.756;2022-10-31T00:40:55;13.27;;;7.33;;
63016;SDS011;50274;45.640;11.756;2022-10-31T00:43:21;14.95;;;7.97;;
63016;SDS011;50274;45.640;11.756;2022-10-31T00:45:47;12.85;;;7.55;;
63016;SDS011;50274;45.640;11.756;2022-10-31T00:48:13;15.63;;;8.18;;
63016;SDS011;50274;45.640;11.756;2022-10-31T00:50:39;15.47;;;7.53;;
63016;SDS011;50274;45.640;11.756;2022-10-31T00:53:05;14.25;;;7.32;;
63016;SDS011;50274;45.640;11.756;2022-10-31T00:55:31;12.90;;;7.10;;
63016;SDS011;50274;45.640;11.756;2022-10-31T00:57:57;12.23;;;7.23;;
63016;SDS011;50274;45.640;11.756;2022-10-31T01:00:23;14.73;;;7.30;;
63016;SDS011;50274;45.640;11.756;2022-10-31T01:02:49;15.50;;;8.32;;
63016;SDS011;50274;45.640;11.756;2022-10-31T01:05:15;12.77;;;6.80;;
63016;SDS011;50274;45.640;11.756;2022-10-31T01:07:41;14.05;;;6.93;;
63016;SDS011;50274;45.640;11.756;2022-10-31T01:10:08;15.20;;;7.43;;
63016;SDS011;50274;45.640;11.756;2022-10-31T01:12:36;12.73;;;7.50;;
63016;SDS011;50274;45.640;11.756;2022-10-31T01:15:03;13.52;;;6.78;;
63016;SDS011;50274;45.640;11.756;2022-10-31T01:17:29;12.80;;;6.90;;
63016;SDS011;50274;45.640;11.756;2022-10-31T01:19:55;13.32;;;6.82;;
63016;SDS011;50274;45.640;11.756;2022-10-31T01:22:21;13.85;;;6.72;;
63016;SDS011;50274;45.640;11.756;2022-10-31T01:24:46;12.97;;;7.00;;
63016;SDS011;50274;45.640;11.756;2022-10-31T01:27:12;12.30;;;7.22;;
63016;SDS011;50274;45.640;11.756;2022-10-31T01:29:38;13.83;;;7.17;;
63016;SDS011;50274;45.640;11.756;2022-10-31T01:32:04;15.32;;;6.95;;
63016;SDS011;50274;45.640;11.756;2022-10-31T01:34:30;12.07;;;6.60;;
63016;SDS011;50274;45.640;11.756;2022-10-31T01:36:56;13.23;;;6.67;;
63016;SDS011;50274;45.640;11.756;2022-10-31T01:39:22;12.98;;;6.88;;
63016;SDS011;50274;45.640;11.756;2022-10-31T01:41:49;13.48;;;6.30;;
63016;SDS011;50274;45.640;11.756;2022-10-31T01:49:14;14.02;;;6.53;;
63016;SDS011;50274;45.640;11.756;2022-10-31T01:51:48;12.02;;;6.40;;
63016;SDS011;50274;45.640;11.756;2022-10-31T01:54:42;9.93;;;6.20;;
63016;SDS011;50274;45.640;11.756;2022-10-31T01:57:12;13.15;;;7.00;;
63016;SDS011;50274;45.640;11.756;2022-10-31T01:59:41;12.27;;;6.65;;
63016;SDS011;50274;45.640;11.756;2022-10-31T02:02:11;11.82;;;6.82;;
63016;SDS011;50274;45.640;11.756;2022-10-31T02:04:40;14.23;;;6.88;;
63016;SDS011;50274;45.640;11.756;2022-10-31T02:07:14;15.13;;;6.47;;
63016;SDS011;50274;45.640;11.756;2022-10-31T02:09:43;11.60;;;6.47;;
63016;SDS011;50274;45.640;11.756;2022-10-31T02:12:10;13.25;;;6.47;;
63016;SDS011;50274;45.640;11.756;2022-10-31T02:14:37;12.32;;;6.93;;
63016;SDS011;50274;45.640;11.756;2022-10-31T02:17:04;10.95;;;6.43;;
63016;SDS011;50274;45.640;11.756;2022-10-31T02:19:31;12.87;;;5.97;;
63016;SDS011;50274;45.640;11.756;2022-10-31T02:22:11;11.70;;;5.63;;
63016;SDS011;50274;45.640;11.756;2022-10-31T02:36:20;12.77;;;6.03;;
63016;SDS011;50274;45.640;11.756;2022-10-31T02:42:01;13.77;;;6.20;;
63016;SDS011;50274;45.640;11.756;2022-10-31T02:44:43;12.30;;;6.60;;
63016;SDS011;50274;45.640;11.756;2022-10-31T02:47:17;10.32;;;5.47;;
63016;SDS011;50274;45.640;11.756;2022-10-31T02:49:53;11.98;;;6.35;;
63016;SDS011;50274;45.640;11.756;2022-10-31T02:52:26;13.13;;;6.82;;
63016;SDS011;50274;45.640;11.756;2022-10-31T02:54:53;10.75;;;6.18;;
63016;SDS011;50274;45.640;11.756;2022-10-31T02:57:27;10.83;;;5.97;;
63016;SDS011;50274;45.640;11.756;2022-10-31T03:00:04;11.13;;;5.88;;
63016;SDS011;50274;45.640;11.756;2022-10-31T03:02:38;10.48;;;5.88;;
63016;SDS011;50274;45.640;11.756;2022-10-31T03:10:52;13.03;;;6.33;;
63016;SDS011;50274;45.640;11.756;2022-10-31T03:21:41;13.65;;;6.68;;
63016;SDS011;50274;45.640;11.756;2022-10-31T03:24:14;11.57;;;5.97;;
63016;SDS011;50274;45.640;11.756;2022-10-31T03:26:44;13.25;;;5.85;;
63016;SDS011;50274;45.640;11.756;2022-10-31T03:29:17;12.18;;;5.53;;
63016;SDS011;50274;45.640;11.756;2022-10-31T03:32:00;11.30;;;6.22;;
63016;SDS011;50274;45.640;11.756;2022-10-31T03:34:46;10.80;;;5.88;;
63016;SDS011;50274;45.640;11.756;2022-10-31T03:37:14;9.50;;;5.23;;
63016;SDS011;50274;45.640;11.756;2022-10-31T03:39:43;11.20;;;6.00;;
63016;SDS011;50274;45.640;11.756;2022-10-31T03:42:12;12.30;;;5.78;;
63016;SDS011;50274;45.640;11.756;2022-10-31T03:44:46;13.25;;;5.85;;
63016;SDS011;50274;45.640;11.756;2022-10-31T03:47:19;11.38;;;5.95;;
63016;SDS011;50274;45.640;11.756;2022-10-31T03:49:44;11.33;;;6.07;;
63016;SDS011;50274;45.640;11.756;2022-10-31T03:55:19;10.77;;;5.78;;
63016;SDS011;50274;45.640;11.756;2022-10-31T03:57:48;14.68;;;5.72;;
63016;SDS011;50274;45.640;11.756;2022-10-31T04:00:21;11.27;;;5.50;;
63016;SDS011;50274;45.640;11.756;2022-10-31T04:02:53;10.00;;;5.78;;
63016;SDS011;50274;45.640;11.756;2022-10-31T04:05:28;10.65;;;5.50;;
63016;SDS011;50274;45.640;11.756;2022-10-31T04:07:55;11.00;;;5.43;;
63016;SDS011;50274;45.640;11.756;2022-10-31T04:10:24;11.05;;;5.57;;
63016;SDS011;50274;45.640;11.756;2022-10-31T04:12:53;11.30;;;6.00;;
63016;SDS011;50274;45.640;11.756;2022-10-31T04:15:23;10.13;;;5.80;;
63016;SDS011;50274;45.640;11.756;2022-10-31T04:17:50;9.48;;;5.72;;
63016;SDS011;50274;45.640;11.756;2022-10-31T04:20:28;10.80;;;5.93;;
63016;SDS011;50274;45.640;11.756;2022-10-31T04:22:59;9.35;;;5.28;;
63016;SDS011;50274;45.640;11.756;2022-10-31T04:25:25;10.70;;;5.17;;
63016;SDS011;50274;45.640;11.756;2022-10-31T04:27:51;9.10;;;5.15;;
63016;SDS011;50274;45.640;11.756;2022-10-31T04:30:17;10.55;;;5.50;;
63016;SDS011;50274;45.640;11.756;2022-10-31T04:32:43;9.63;;;5.40;;
63016;SDS011;50274;45.640;11.756;2022-10-31T04:35:09;9.93;;;5.22;;
63016;SDS011;50274;45.640;11.756;2022-10-31T04:37:34;9.33;;;5.00;;
63016;SDS011;50274;45.640;11.756;2022-10-31T04:40:00;10.70;;;5.03;;
63016;SDS011;50274;45.640;11.756;2022-10-31T04:42:28;8.25;;;5.07;;
63016;SDS011;50274;45.640;11.756;2022-10-31T04:44:55;9.98;;;5.10;;
63016;SDS011;50274;45.640;11.756;2022-10-31T04:47:21;11.43;;;4.87;;
63016;SDS011;50274;45.640;11.756;2022-10-31T04:49:46;11.32;;;4.78;;
63016;SDS011;50274;45.640;11.756;2022-10-31T04:52:12;10.63;;;5.80;;
63016;SDS011;50274;45.640;11.756;2022-10-31T04:54:38;10.85;;;5.78;;
63016;SDS011;50274;45.640;11.756;2022-10-31T04:57:04;12.50;;;5.20;;
63016;SDS011;50274;45.640;11.756;2022-10-31T04:59:30;11.07;;;4.90;;
63016;SDS011;50274;45.640;11.756;2022-10-31T05:01:56;9.33;;;5.13;;
63016;SDS011;50274;45.640;11.756;2022-10-31T05:04:22;10.18;;;4.95;;
63016;SDS011;50274;45.640;11.756;2022-10-31T05:06:47;11.00;;;4.77;;
63016;SDS011;50274;45.640;11.756;2022-10-31T05:09:13;9.07;;;5.25;;
63016;SDS011;50274;45.640;11.756;2022-10-31T05:11:39;8.32;;;5.20;;
63016;SDS011;50274;45.640;11.756;2022-10-31T05:14:05;10.33;;;4.90;;
63016;SDS011;50274;45.640;11.756;2022-10-31T05:16:31;8.70;;;4.88;;
63016;SDS011;50274;45.640;11.756;2022-10-31T05:18:56;10.60;;;5.07;;
63016;SDS011;50274;45.640;11.756;2022-10-31T05:21:22;10.02;;;5.55;;
63016;SDS011;50274;45.640;11.756;2022-10-31T05:23:48;9.67;;;4.57;;
63016;SDS011;50274;45.640;11.756;2022-10-31T05:26:14;8.67;;;4.50;;
63016;SDS011;50274;45.640;11.756;2022-10-31T05:28:40;9.50;;;5.15;;
63016;SDS011;50274;45.640;11.756;2022-10-31T05:31:05;12.73;;;5.03;;
63016;SDS011;50274;45.640;11.756;2022-10-31T05:33:31;10.35;;;5.13;;
63016;SDS011;50274;45.640;11.756;2022-10-31T05:35:57;9.60;;;4.60;;
63016;SDS011;50274;45.640;11.756;2022-10-31T05:38:23;9.18;;;4.65;;
63016;SDS011;50274;45.640;11.756;2022-10-31T05:40:49;8.95;;;4.65;;
63016;SDS011;50274;45.640;11.756;2022-10-31T05:43:14;8.63;;;4.77;;
63016;SDS011;50274;45.640;11.756;2022-10-31T05:45:40;8.90;;;4.32;;
63016;SDS011;50274;45.640;11.756;2022-10-31T05:48:06;10.77;;;4.83;;
63016;SDS011;50274;45.640;11.756;2022-10-31T05:50:33;8.70;;;4.83;;
63016;SDS011;50274;45.640;11.756;2022-10-31T05:53:00;9.02;;;4.43;;
63016;SDS011;50274;45.640;11.756;2022-10-31T05:55:27;8.82;;;4.57;;
63016;SDS011;50274;45.640;11.756;2022-10-31T05:57:54;10.90;;;4.47;;
63016;SDS011;50274;45.640;11.756;2022-10-31T06:00:21;9.90;;;4.87;;
63016;SDS011;50274;45.640;11.756;2022-10-31T06:02:47;7.75;;;4.25;;
63016;SDS011;50274;45.640;11.756;2022-10-31T06:05:13;10.02;;;4.53;;
63016;SDS011;50274;45.640;11.756;2022-10-31T06:07:41;7.65;;;4.35;;
63016;SDS011;50274;45.640;11.756;2022-10-31T06:10:07;10.43;;;4.33;;
63016;SDS011;50274;45.640;11.756;2022-10-31T06:12:34;9.65;;;4.63;;
63016;SDS011;50274;45.640;11.756;2022-10-31T06:15:06;8.82;;;4.38;;
63016;SDS011;50274;45.640;11.756;2022-10-31T06:17:33;8.52;;;4.40;;
63016;SDS011;50274;45.640;11.756;2022-10-31T06:19:59;8.88;;;4.55;;
63016;SDS011;50274;45.640;11.756;2022-10-31T06:22:25;9.40;;;4.03;;
63016;SDS011;50274;45.640;11.756;2022-10-31T06:24:52;10.18;;;4.72;;
63016;SDS011;50274;45.640;11.756;2022-10-31T06:27:17;9.80;;;4.65;;
63016;SDS011;50274;45.640;11.756;2022-10-31T06:29:43;11.50;;;4.70;;
63016;SDS011;50274;45.640;11.756;2022-10-31T06:32:11;7.72;;;3.90;;
63016;SDS011;50274;45.640;11.756;2022-10-31T06:34:38;9.77;;;4.70;;
63016;SDS011;50274;45.640;11.756;2022-10-31T06:37:08;10.10;;;4.25;;
63016;SDS011;50274;45.640;11.756;2022-10-31T06:39:35;8.20;;;4.75;;
63016;SDS011;50274;45.640;11.756;2022-10-31T06:42:01;10.73;;;4.40;;
63016;SDS011;50274;45.640;11.756;2022-10-31T06:44:27;9.05;;;4.10;;
63016;SDS011;50274;45.640;11.756;2022-10-31T06:46:53;8.00;;;4.20;;
63016;SDS011;50274;45.640;11.756;2022-10-31T06:49:19;8.90;;;4.30;;
63016;SDS011;50274;45.640;11.756;2022-10-31T06:51:49;10.27;;;4.63;;
63016;SDS011;50274;45.640;11.756;2022-10-31T06:54:15;7.82;;;4.07;;
63016;SDS011;50274;45.640;11.756;2022-10-31T06:56:41;10.48;;;5.05;;
63016;SDS011;50274;45.640;11.756;2022-10-31T06:59:07;10.27;;;4.77;;
63016;SDS011;50274;45.640;11.756;2022-10-31T07:01:33;12.27;;;4.90;;
63016;SDS011;50274;45.640;11.756;2022-10-31T07:03:59;9.57;;;4.88;;
63016;SDS011;50274;45.640;11.756;2022-10-31T07:06:25;8.70;;;4.47;;
63016;SDS011;50274;45.640;11.756;2022-10-31T07:08:50;11.98;;;4.45;;
63016;SDS011;50274;45.640;11.756;2022-10-31T07:11:16;11.35;;;4.63;;
63016;SDS011;50274;45.640;11.756;2022-10-31T07:13:42;10.00;;;4.70;;
63016;SDS011;50274;45.640;11.756;2022-10-31T07:16:08;9.82;;;4.72;;
63016;SDS011;50274;45.640;11.756;2022-10-31T07:18:37;13.25;;;5.22;;
63016;SDS011;50274;45.640;11.756;2022-10-31T07:21:02;9.20;;;4.70;;
63016;SDS011;50274;45.640;11.756;2022-10-31T07:23:29;10.57;;;5.05;;
63016;SDS011;50274;45.640;11.756;2022-10-31T07:25:55;12.63;;;4.78;;
63016;SDS011;50274;45.640;11.756;2022-10-31T07:28:22;11.47;;;5.10;;
63016;SDS011;50274;45.640;11.756;2022-10-31T07:30:52;9.30;;;4.05;;
63016;SDS011;50274;45.640;11.756;2022-10-31T07:33:22;10.95;;;4.63;;
63016;SDS011;50274;45.640;11.756;2022-10-31T07:35:51;12.02;;;4.78;;
63016;SDS011;50274;45.640;11.756;2022-10-31T07:38:16;10.17;;;4.23;;
63016;SDS011;50274;45.640;11.756;2022-10-31T07:40:42;8.33;;;3.80;;
63016;SDS011;50274;45.640;11.756;2022-10-31T07:43:10;11.73;;;5.00;;
63016;SDS011;50274;45.640;11.756;2022-10-31T07:45:37;9.93;;;4.00;;
63016;SDS011;50274;45.640;11.756;2022-10-31T07:48:03;10.30;;;4.88;;
63016;SDS011;50274;45.640;11.756;2022-10-31T07:50:30;12.70;;;4.67;;
63016;SDS011;50274;45.640;11.756;2022-10-31T07:53:04;10.32;;;4.15;;
63016;SDS011;50274;45.640;11.756;2022-10-31T07:55:31;10.43;;;4.55;;
63016;SDS011;50274;45.640;11.756;2022-10-31T07:58:00;9.32;;;4.07;;
63016;SDS011;50274;45.640;11.756;2022-10-31T08:00:30;11.37;;;4.47;;
63016;SDS011;50274;45.640;11.756;2022-10-31T08:02:58;9.80;;;4.53;;
63016;SDS011;50274;45.640;11.756;2022-10-31T08:05:24;12.23;;;5.97;;
63016;SDS011;50274;45.640;11.756;2022-10-31T08:07:50;15.18;;;6.57;;
63016;SDS011;50274;45.640;11.756;2022-10-31T08:10:16;13.47;;;6.63;;
63016;SDS011;50274;45.640;11.756;2022-10-31T08:12:42;13.10;;;5.90;;
63016;SDS011;50274;45.640;11.756;2022-10-31T08:15:08;15.82;;;6.28;;
63016;SDS011;50274;45.640;11.756;2022-10-31T08:17:37;12.77;;;5.47;;
63016;SDS011;50274;45.640;11.756;2022-10-31T08:20:04;16.40;;;5.20;;
63016;SDS011;50274;45.640;11.756;2022-10-31T08:22:30;17.35;;;8.25;;
63016;SDS011;50274;45.640;11.756;2022-10-31T08:24:56;18.73;;;7.68;;
63016;SDS011;50274;45.640;11.756;2022-10-31T08:27:22;19.33;;;6.20;;
63016;SDS011;50274;45.640;11.756;2022-10-31T08:29:48;13.63;;;5.77;;
63016;SDS011;50274;45.640;11.756;2022-10-31T08:32:14;14.48;;;5.88;;
63016;SDS011;50274;45.640;11.756;2022-10-31T08:34:40;12.33;;;5.53;;
63016;SDS011;50274;45.640;11.756;2022-10-31T08:37:05;14.35;;;4.47;;
63016;SDS011;50274;45.640;11.756;2022-10-31T08:39:31;13.15;;;5.40;;
63016;SDS011;50274;45.640;11.756;2022-10-31T08:41:57;12.30;;;5.00;;
63016;SDS011;50274;45.640;11.756;2022-10-31T08:44:23;14.10;;;4.88;;
63016;SDS011;50274;45.640;11.756;2022-10-31T08:46:48;13.20;;;5.10;;
63016;SDS011;50274;45.640;11.756;2022-10-31T08:49:14;14.30;;;5.50;;
63016;SDS011;50274;45.640;11.756;2022-10-31T08:51:40;13.77;;;5.20;;
63016;SDS011;50274;45.640;11.756;2022-10-31T08:54:06;20.07;;;6.63;;
63016;SDS011;50274;45.640;11.756;2022-10-31T08:56:31;13.05;;;5.85;;
63016;SDS011;50274;45.640;11.756;2022-10-31T08:58:57;13.20;;;4.90;;
63016;SDS011;50274;45.640;11.756;2022-10-31T09:01:23;15.52;;;6.30;;
63016;SDS011;50274;45.640;11.756;2022-10-31T09:03:49;14.13;;;5.13;;
63016;SDS011;50274;45.640;11.756;2022-10-31T09:06:14;16.88;;;5.95;;
63016;SDS011;50274;45.640;11.756;2022-10-31T09:08:40;19.97;;;5.97;;
63016;SDS011;50274;45.640;11.756;2022-10-31T09:11:06;16.60;;;6.10;;
63016;SDS011;50274;45.640;11.756;2022-10-31T09:13:32;19.85;;;5.60;;
63016;SDS011;50274;45.640;11.756;2022-10-31T09:15:58;11.70;;;5.07;;
63016;SDS011;50274;45.640;11.756;2022-10-31T09:18:24;14.73;;;5.47;;
63016;SDS011;50274;45.640;11.756;2022-10-31T09:20:52;11.45;;;4.88;;
63016;SDS011;50274;45.640;11.756;2022-10-31T09:23:20;15.32;;;5.03;;
63016;SDS011;50274;45.640;11.756;2022-10-31T09:25:48;16.98;;;4.95;;
63016;SDS011;50274;45.640;11.756;2022-10-31T09:28:16;9.50;;;4.53;;
63016;SDS011;50274;45.640;11.756;2022-10-31T09:30:46;11.13;;;4.50;;
63016;SDS011;50274;45.640;11.756;2022-10-31T09:33:14;10.50;;;3.70;;
63016;SDS011;50274;45.640;11.756;2022-10-31T09:35:40;14.65;;;4.60;;
63016;SDS011;50274;45.640;11.756;2022-10-31T09:38:08;14.45;;;4.82;;
63016;SDS011;50274;45.640;11.756;2022-10-31T09:48:42;13.23;;;4.80;;
63016;SDS011;50274;45.640;11.756;2022-10-31T09:51:15;13.80;;;4.40;;
63016;SDS011;50274;45.640;11.756;2022-10-31T09:53:52;14.77;;;4.87;;
63016;SDS011;50274;45.640;11.756;2022-10-31T09:56:40;11.90;;;4.57;;
63016;SDS011;50274;45.640;11.756;2022-10-31T09:59:11;15.25;;;4.57;;
63016;SDS011;50274;45.640;11.756;2022-10-31T10:01:54;14.18;;;4.32;;
63016;SDS011;50274;45.640;11.756;2022-10-31T10:10:01;16.90;;;4.90;;
63016;SDS011;50274;45.640;11.756;2022-10-31T10:12:48;18.45;;;4.80;;
63016;SDS011;50274;45.640;11.756;2022-10-31T10:18:37;11.10;;;4.25;;
63016;SDS011;50274;45.640;11.756;2022-10-31T10:21:25;10.00;;;4.13;;
63016;SDS011;50274;45.640;11.756;2022-10-31T10:24:31;15.85;;;4.25;;
63016;SDS011;50274;45.640;11.756;2022-10-31T10:27:20;10.73;;;3.92;;
63016;SDS011;50274;45.640;11.756;2022-10-31T10:30:17;13.18;;;5.18;;
63016;SDS011;50274;45.640;11.756;2022-10-31T10:33:11;10.70;;;4.30;;
63016;SDS011;50274;45.640;11.756;2022-10-31T10:35:51;11.13;;;4.37;;
63016;SDS011;50274;45.640;11.756;2022-10-31T10:40:49;14.15;;;5.40;;
63016;SDS011;50274;45.640;11.756;2022-10-31T10:43:34;21.27;;;5.82;;
63016;SDS011;50274;45.640;11.756;2022-10-31T10:51:51;74.85;;;19.00;;
63016;SDS011;50274;45.640;11.756;2022-10-31T10:59:34;22.83;;;7.43;;
63016;SDS011;50274;45.640;11.756;2022-10-31T11:02:00;21.70;;;7.47;;
63016;SDS011;50274;45.640;11.756;2022-10-31T11:04:28;23.33;;;6.85;;
63016;SDS011;50274;45.640;11.756;2022-10-31T11:07:02;18.95;;;7.32;;
63016;SDS011;50274;45.640;11.756;2022-10-31T11:09:33;20.25;;;6.88;;
63016;SDS011;50274;45.640;11.756;2022-10-31T11:12:00;17.37;;;7.53;;
63016;SDS011;50274;45.640;11.756;2022-10-31T11:14:53;18.83;;;6.63;;
63016;SDS011;50274;45.640;11.756;2022-10-31T11:17:34;14.98;;;5.95;;
63016;SDS011;50274;45.640;11.756;2022-10-31T11:22:39;20.02;;;7.68;;
63016;SDS011;50274;45.640;11.756;2022-10-31T11:25:24;17.63;;;7.63;;
63016;SDS011;50274;45.640;11.756;2022-10-31T11:30:31;23.73;;;11.63;;
63016;SDS011;50274;45.640;11.756;2022-10-31T11:33:26;27.38;;;12.35;;
63016;SDS011;50274;45.640;11.756;2022-10-31T11:35:59;21.67;;;9.80;;
63016;SDS011;50274;45.640;11.756;2022-10-31T11:38:33;22.00;;;9.87;;
63016;SDS011;50274;45.640;11.756;2022-10-31T11:41:11;22.35;;;10.27;;
63016;SDS011;50274;45.640;11.756;2022-10-31T11:46:25;22.95;;;12.48;;
63016;SDS011;50274;45.640;11.756;2022-10-31T11:48:59;23.80;;;12.00;;
63016;SDS011;50274;45.640;11.756;2022-10-31T11:51:26;21.80;;;12.37;;
63016;SDS011;50274;45.640;11.756;2022-10-31T11:54:01;24.40;;;10.98;;
63016;SDS011;50274;45.640;11.756;2022-10-31T11:56:41;23.52;;;10.45;;
63016;SDS011;50274;45.640;11.756;2022-10-31T11:59:24;19.40;;;9.55;;
63016;SDS011;50274;45.640;11.756;2022-10-31T12:01:53;18.33;;;8.35;;
63016;SDS011;50274;45.640;11.756;2022-10-31T12:04:26;22.77;;;9.00;;
63016;SDS011;50274;45.640;11.756;2022-10-31T12:07:02;23.08;;;9.18;;
63016;SDS011;50274;45.640;11.756;2022-10-31T12:09:29;24.52;;;10.45;;
63016;SDS011;50274;45.640;11.756;2022-10-31T12:17:35;25.85;;;12.50;;
63016;SDS011;50274;45.640;11.756;2022-10-31T12:30:19;26.85;;;12.68;;
63016;SDS011;50274;45.640;11.756;2022-10-31T12:40:52;25.73;;;11.67;;
63016;SDS011;50274;45.640;11.756;2022-10-31T12:46:03;20.67;;;10.70;;
63016;SDS011;50274;45.640;11.756;2022-10-31T12:51:15;22.08;;;12.00;;
63016;SDS011;50274;45.640;11.756;2022-10-31T12:59:24;25.27;;;13.27;;
63016;SDS011;50274;45.640;11.756;2022-10-31T13:04:42;26.42;;;12.55;;
63016;SDS011;50274;45.640;11.756;2022-10-31T13:09:58;24.90;;;12.95;;
63016;SDS011;50274;45.640;11.756;2022-10-31T13:12:46;24.25;;;12.88;;
63016;SDS011;50274;45.640;11.756;2022-10-31T13:15:18;25.65;;;13.18;;
63016;SDS011;50274;45.640;11.756;2022-10-31T13:17:53;28.80;;;12.93;;
63016;SDS011;50274;45.640;11.756;2022-10-31T13:22:55;24.60;;;13.30;;
63016;SDS011;50274;45.640;11.756;2022-10-31T13:25:30;22.17;;;12.40;;
63016;SDS011;50274;45.640;11.756;2022-10-31T13:28:04;26.27;;;13.40;;
63016;SDS011;50274;45.640;11.756;2022-10-31T13:30:43;27.17;;;15.38;;
63016;SDS011;50274;45.640;11.756;2022-10-31T13:33:13;33.10;;;16.40;;
63016;SDS011;50274;45.640;11.756;2022-10-31T13:38:26;27.70;;;14.98;;
63016;SDS011;50274;45.640;11.756;2022-10-31T13:44:20;23.27;;;11.63;;
63016;SDS011;50274;45.640;11.756;2022-10-31T13:46:49;32.10;;;13.77;;
63016;SDS011;50274;45.640;11.756;2022-10-31T13:52:15;25.83;;;13.15;;
63016;SDS011;50274;45.640;11.756;2022-10-31T13:54:43;25.83;;;11.98;;
63016;SDS011;50274;45.640;11.756;2022-10-31T13:57:18;26.40;;;13.30;;
63016;SDS011;50274;45.640;11.756;2022-10-31T13:59:56;22.97;;;12.20;;
63016;SDS011;50274;45.640;11.756;2022-10-31T14:02:33;20.63;;;10.98;;
63016;SDS011;50274;45.640;11.756;2022-10-31T14:05:18;28.13;;;13.25;;
63016;SDS011;50274;45.640;11.756;2022-10-31T14:07:51;20.15;;;9.65;;
63016;SDS011;50274;45.640;11.756;2022-10-31T14:12:47;25.93;;;12.50;;
63016;SDS011;50274;45.640;11.756;2022-10-31T14:15:16;21.88;;;10.93;;
63016;SDS011;50274;45.640;11.756;2022-10-31T14:17:57;21.80;;;11.65;;
63016;SDS011;50274;45.640;11.756;2022-10-31T14:20:33;20.58;;;9.45;;
63016;SDS011;50274;45.640;11.756;2022-10-31T14:25:53;22.27;;;11.37;;
63016;SDS011;50274;45.640;11.756;2022-10-31T14:28:32;22.83;;;11.70;;
63016;SDS011;50274;45.640;11.756;2022-10-31T14:31:00;19.45;;;10.75;;
63016;SDS011;50274;45.640;11.756;2022-10-31T14:33:27;23.13;;;10.80;;
63016;SDS011;50274;45.640;11.756;2022-10-31T14:36:01;19.73;;;11.00;;
63016;SDS011;50274;45.640;11.756;2022-10-31T14:52:01;23.10;;;11.47;;
63016;SDS011;50274;45.640;11.756;2022-10-31T14:54:32;20.05;;;10.98;;
63016;SDS011;50274;45.640;11.756;2022-10-31T14:57:04;20.05;;;10.27;;
63016;SDS011;50274;45.640;11.756;2022-10-31T14:59:33;23.25;;;12.38;;
63016;SDS011;50274;45.640;11.756;2022-10-31T15:02:15;28.35;;;12.13;;
63016;SDS011;50274;45.640;11.756;2022-10-31T15:04:53;24.50;;;12.13;;
63016;SDS011;50274;45.640;11.756;2022-10-31T15:07:25;21.80;;;10.57;;
63016;SDS011;50274;45.640;11.756;2022-10-31T15:10:01;20.08;;;10.73;;
63016;SDS011;50274;45.640;11.756;2022-10-31T15:12:28;20.83;;;9.60;;
63016;SDS011;50274;45.640;11.756;2022-10-31T15:15:10;28.52;;;12.10;;
63016;SDS011;50274;45.640;11.756;2022-10-31T15:17:41;17.00;;;9.27;;
63016;SDS011;50274;45.640;11.756;2022-10-31T15:20:22;19.02;;;9.55;;
63016;SDS011;50274;45.640;11.756;2022-10-31T15:22:53;18.83;;;10.98;;
63016;SDS011;50274;45.640;11.756;2022-10-31T15:25:22;18.75;;;10.25;;
63016;SDS011;50274;45.640;11.756;2022-10-31T15:27:49;18.90;;;10.40;;
63016;SDS011;50274;45.640;11.756;2022-10-31T15:30:17;23.60;;;10.73;;
63016;SDS011;50274;45.640;11.756;2022-10-31T15:32:48;18.52;;;9.85;;
63016;SDS011;50274;45.640;11.756;2022-10-31T15:35:25;21.75;;;11.20;;
63016;SDS011;50274;45.640;11.756;2022-10-31T15:37:53;21.02;;;9.88;;
63016;SDS011;50274;45.640;11.756;2022-10-31T15:40:19;20.63;;;10.95;;
63016;SDS011;50274;45.640;11.756;2022-10-31T15:42:57;18.73;;;10.10;;
63016;SDS011;50274;45.640;11.756;2022-10-31T15:45:27;20.02;;;10.27;;
63016;SDS011;50274;45.640;11.756;2022-10-31T15:48:28;21.23;;;10.68;;
63016;SDS011;50274;45.640;11.756;2022-10-31T15:50:54;22.98;;;11.02;;
63016;SDS011;50274;45.640;11.756;2022-10-31T15:56:08;22.30;;;10.77;;
63016;SDS011;50274;45.640;11.756;2022-10-31T15:58:45;22.75;;;11.13;;
63016;SDS011;50274;45.640;11.756;2022-10-31T16:03:57;25.90;;;11.00;;
63016;SDS011;50274;45.640;11.756;2022-10-31T16:06:35;21.15;;;10.95;;
63016;SDS011;50274;45.640;11.756;2022-10-31T16:09:01;24.87;;;11.67;;
63016;SDS011;50274;45.640;11.756;2022-10-31T16:16:48;21.45;;;11.05;;
63016;SDS011;50274;45.640;11.756;2022-10-31T16:19:28;30.95;;;12.50;;
63016;SDS011;50274;45.640;11.756;2022-10-31T16:22:07;25.43;;;12.37;;
63016;SDS011;50274;45.640;11.756;2022-10-31T16:24:46;39.13;;;18.35;;
63016;SDS011;50274;45.640;11.756;2022-10-31T16:27:18;61.20;;;25.00;;
63016;SDS011;50274;45.640;11.756;2022-10-31T16:29:50;57.50;;;22.65;;
63016;SDS011;50274;45.640;11.756;2022-10-31T16:37:40;49.55;;;24.17;;
63016;SDS011;50274;45.640;11.756;2022-10-31T16:40:08;55.55;;;24.27;;
63016;SDS011;50274;45.640;11.756;2022-10-31T16:42:38;54.92;;;22.98;;
63016;SDS011;50274;45.640;11.756;2022-10-31T16:45:05;66.03;;;26.30;;
63016;SDS011;50274;45.640;11.756;2022-10-31T16:47:34;60.23;;;25.90;;
63016;SDS011;50274;45.640;11.756;2022-10-31T16:50:00;93.20;;;40.08;;
63016;SDS011;50274;45.640;11.756;2022-10-31T16:52:26;99.97;;;43.20;;
63016;SDS011;50274;45.640;11.756;2022-10-31T16:54:52;105.68;;;41.70;;
63016;SDS011;50274;45.640;11.756;2022-10-31T16:57:20;99.70;;;39.38;;
63016;SDS011;50274;45.640;11.756;2022-10-31T16:59:51;90.10;;;33.57;;
63016;SDS011;50274;45.640;11.756;2022-10-31T17:02:20;93.07;;;31.38;;
63016;SDS011;50274;45.640;11.756;2022-10-31T17:04:46;83.05;;;31.02;;
63016;SDS011;50274;45.640;11.756;2022-10-31T17:07:12;90.43;;;36.17;;
63016;SDS011;50274;45.640;11.756;2022-10-31T17:09:38;121.97;;;44.90;;
63016;SDS011;50274;45.640;11.756;2022-10-31T17:12:04;160.85;;;66.07;;
63016;SDS011;50274;45.640;11.756;2022-10-31T17:14:32;193.65;;;78.05;;
63016;SDS011;50274;45.640;11.756;2022-10-31T17:17:01;220.87;;;88.17;;
63016;SDS011;50274;45.640;11.756;2022-10-31T17:19:27;209.52;;;86.80;;